createdAt,value
2023-03-15T00:01:18.589Z,74.87
2023-03-15T00:04:20.550Z,75.01
2023-03-15T00:07:25.114Z,74.99
2023-03-15T00:10:26.106Z,75.04
2023-03-15T00:13:27.043Z,75.00
2023-03-15T00:16:32.170Z,75.10
2023-03-15T00:19:33.117Z,74.93
2023-03-15T00:22:33.971Z,75.02
2023-03-15T00:25:35.093Z,74.93
2023-03-15T00:28:36.054Z,75.02
2023-03-15T00:31:37.040Z,74.98
2023-03-15T00:34:37.968Z,75.07
2023-03-15T00:37:38.893Z,75.08
2023-03-15T00:40:39.876Z,75.00
2023-03-15T00:43:41.523Z,75.09
2023-03-15T00:46:42.569Z,75.12
2023-03-15T00:49:43.512Z,75.10
2023-03-15T00:52:44.812Z,75.14
2023-03-15T00:55:46.833Z,75.22
2023-03-15T00:58:49.361Z,75.14
2023-03-15T01:01:52.350Z,75.04
2023-03-15T01:04:54.480Z,75.15
2023-03-15T01:07:55.530Z,75.21
2023-03-15T01:11:01.373Z,75.16
2023-03-15T01:14:08.053Z,75.24
2023-03-15T01:17:08.930Z,75.13
2023-03-15T01:20:12.812Z,75.25
2023-03-15T01:23:14.227Z,75.26
2023-03-15T01:26:16.999Z,75.24
2023-03-15T01:29:18.108Z,75.05
2023-03-15T01:32:18.995Z,75.13
2023-03-15T01:35:20.144Z,75.07
2023-03-15T01:38:21.239Z,75.20
2023-03-15T01:41:24.158Z,75.20
2023-03-15T01:44:52.781Z,75.18
2023-03-15T01:47:53.631Z,75.14
2023-03-15T01:50:55.332Z,75.19
2023-03-15T01:54:31.451Z,75.13
2023-03-15T01:57:41.398Z,75.20
2023-03-15T02:00:43.917Z,75.15
2023-03-15T02:03:51.065Z,75.16
2023-03-15T02:06:58.540Z,75.19
2023-03-15T02:10:09.784Z,75.14
2023-03-15T02:13:13.725Z,75.11
2023-03-15T02:16:16.142Z,75.12
2023-03-15T02:19:33.267Z,74.98
2023-03-15T02:22:56.777Z,74.95
2023-03-15T02:26:16.072Z,75.08
2023-03-15T02:29:17.014Z,75.01
2023-03-15T02:32:17.853Z,74.92
2023-03-15T02:35:28.932Z,75.00
2023-03-15T02:38:30.252Z,75.11
2023-03-15T02:41:36.788Z,75.01
2023-03-15T02:44:39.635Z,75.05
2023-03-15T02:47:40.858Z,75.26
2023-03-15T02:50:42.003Z,75.22
2023-03-15T02:53:42.902Z,75.10
2023-03-15T02:56:43.720Z,75.14
2023-03-15T02:59:44.923Z,75.21
2023-03-15T03:02:48.497Z,75.16
2023-03-15T03:05:49.453Z,74.96
2023-03-15T03:08:50.485Z,75.07
2023-03-15T03:11:52.901Z,75.23
2023-03-15T03:14:55.953Z,75.29
2023-03-15T03:17:57.504Z,75.38
2023-03-15T03:20:58.841Z,75.38
2023-03-15T03:24:01.052Z,75.32
2023-03-15T03:27:01.941Z,75.49
2023-03-15T03:30:08.082Z,75.54
2023-03-15T03:33:09.321Z,75.70
2023-03-15T03:36:22.431Z,75.75
2023-03-15T03:39:24.764Z,75.63
2023-03-15T03:42:25.687Z,75.66
2023-03-15T03:45:26.868Z,75.67
2023-03-15T03:48:30.485Z,75.68
2023-03-15T03:51:33.445Z,75.75
2023-03-15T03:54:34.281Z,75.71
2023-03-15T03:57:35.218Z,75.75
2023-03-15T04:00:37.341Z,75.58
2023-03-15T04:03:38.508Z,75.76
2023-03-15T04:06:50.147Z,75.79
2023-03-15T04:09:53.350Z,76.01
2023-03-15T04:12:57.866Z,75.82
2023-03-15T04:16:00.813Z,76.06
2023-03-15T04:19:07.372Z,76.09
2023-03-15T04:22:09.566Z,76.06
2023-03-15T04:25:30.789Z,76.00
2023-03-15T04:28:45.291Z,75.97
2023-03-15T04:32:03.945Z,75.90
2023-03-15T04:35:18.120Z,75.96
2023-03-15T04:38:32.018Z,75.99
2023-03-15T04:41:51.476Z,75.88
2023-03-15T04:45:12.621Z,75.71
2023-03-15T04:48:32.035Z,75.57
2023-03-15T04:52:01.985Z,75.60
2023-03-15T04:55:17.170Z,75.89
2023-03-15T04:58:48.256Z,75.82
2023-03-15T05:02:20.416Z,75.90
2023-03-15T05:05:39.881Z,76.01
2023-03-15T05:08:59.306Z,76.10
2023-03-15T05:12:23.827Z,76.06
2023-03-15T05:15:43.505Z,76.23
2023-03-15T05:19:10.738Z,76.50
2023-03-15T05:22:33.677Z,76.66
2023-03-15T05:26:05.254Z,76.65
2023-03-15T05:29:35.227Z,76.64
2023-03-15T05:33:05.270Z,76.65
2023-03-15T05:36:29.783Z,76.60
2023-03-15T05:39:52.790Z,76.55
2023-03-15T05:43:21.226Z,76.49
2023-03-15T05:46:45.989Z,76.52
2023-03-15T05:50:04.373Z,76.65
2023-03-15T05:53:20.249Z,76.52
2023-03-15T05:56:50.333Z,76.63
2023-03-15T06:00:09.756Z,76.76
2023-03-15T06:03:16.461Z,76.69
2023-03-15T06:06:25.636Z,76.74
2023-03-15T06:09:26.644Z,76.86
2023-03-15T06:12:27.609Z,76.87
2023-03-15T06:15:28.740Z,76.79
2023-03-15T06:18:30.373Z,76.94
2023-03-15T06:21:32.936Z,76.90
2023-03-15T06:24:34.200Z,76.97
2023-03-15T06:27:35.714Z,77.03
2023-03-15T06:30:36.671Z,77.10
2023-03-15T06:33:38.019Z,77.10
2023-03-15T06:36:41.957Z,77.19
2023-03-15T06:39:44.079Z,77.15
2023-03-15T06:42:45.209Z,77.25
2023-03-15T06:45:46.927Z,77.30
2023-03-15T06:48:49.041Z,77.26
2023-03-15T06:51:50.458Z,77.28
2023-03-15T06:54:51.323Z,77.28
2023-03-15T06:57:52.313Z,77.32
2023-03-15T07:00:53.232Z,77.33
2023-03-15T07:03:54.056Z,77.31
2023-03-15T07:06:54.926Z,77.33
2023-03-15T07:09:55.831Z,77.28
2023-03-15T07:12:57.224Z,77.27
2023-03-15T07:15:58.181Z,77.46
2023-03-15T07:18:59.592Z,77.30
2023-03-15T07:22:00.441Z,77.40
2023-03-15T07:25:01.571Z,77.43
2023-03-15T07:28:02.532Z,77.44
2023-03-15T07:31:05.306Z,77.38
2023-03-15T07:34:06.296Z,77.49
2023-03-15T07:37:07.298Z,77.46
2023-03-15T07:40:09.273Z,77.46
2023-03-15T07:43:10.227Z,77.53
2023-03-15T07:46:11.186Z,77.46
2023-03-15T07:49:22.477Z,77.43
2023-03-15T07:52:24.158Z,77.45
2023-03-15T07:55:25.113Z,77.63
2023-03-15T07:58:26.119Z,77.49
2023-03-15T08:01:27.044Z,77.49
2023-03-15T08:04:27.900Z,77.46
2023-03-15T08:07:28.853Z,77.45
2023-03-15T08:10:29.995Z,77.35
2023-03-15T08:13:30.855Z,77.36
2023-03-15T08:16:31.689Z,77.19
2023-03-15T08:19:32.697Z,77.07
2023-03-15T08:22:33.523Z,76.86
2023-03-15T08:25:35.935Z,76.53
2023-03-15T08:28:36.840Z,76.19
2023-03-15T08:31:37.918Z,75.82
2023-03-15T08:34:38.940Z,75.33
2023-03-15T08:37:39.860Z,75.09
2023-03-15T08:40:40.832Z,74.69
2023-03-15T08:43:41.714Z,74.40
2023-03-15T08:46:42.741Z,74.00
2023-03-15T08:49:43.634Z,73.56
2023-03-15T08:52:44.491Z,73.24
2023-03-15T08:55:45.384Z,72.81
2023-03-15T08:58:46.455Z,72.58
2023-03-15T09:01:47.415Z,72.29
2023-03-15T09:04:48.416Z,72.04
2023-03-15T09:07:52.285Z,71.86
2023-03-15T09:10:56.483Z,71.85
2023-03-15T09:13:57.284Z,71.83
2023-03-15T09:16:58.160Z,71.82
2023-03-15T09:19:59.100Z,71.77
2023-03-15T09:23:00.132Z,71.35
2023-03-15T09:26:01.201Z,71.14
2023-03-15T09:29:02.212Z,70.79
2023-03-15T09:32:03.584Z,70.44
2023-03-15T09:35:06.852Z,70.08
2023-03-15T09:38:07.778Z,69.71
2023-03-15T09:41:37.625Z,69.36
2023-03-15T09:44:51.841Z,68.78
2023-03-15T09:48:00.359Z,68.46
2023-03-15T09:51:09.470Z,67.99
2023-03-15T09:54:23.204Z,67.49
2023-03-15T09:57:33.762Z,66.86
2023-03-15T10:00:41.564Z,66.34
2023-03-15T10:03:50.827Z,65.67
2023-03-15T10:06:54.581Z,64.83
2023-03-15T10:09:58.247Z,64.31
2023-03-15T10:13:15.573Z,64.04
2023-03-15T10:16:43.236Z,63.07
2023-03-15T10:19:51.294Z,62.21
2023-03-15T10:22:58.189Z,61.53
2023-03-15T10:26:00.114Z,61.12
2023-03-15T10:29:02.606Z,60.84
2023-03-15T10:32:04.747Z,60.42
2023-03-15T10:35:14.256Z,59.60
2023-03-15T10:38:16.953Z,59.05
2023-03-15T10:41:29.833Z,58.82
2023-03-15T10:44:36.180Z,57.76
2023-03-15T10:47:45.225Z,56.98
2023-03-15T10:50:50.010Z,56.34
2023-03-15T10:54:19.823Z,55.46
2023-03-15T10:57:21.910Z,54.09
2023-03-15T11:00:36.048Z,53.21
2023-03-15T11:03:37.577Z,53.44
2023-03-15T11:06:56.812Z,53.71
2023-03-15T11:10:02.644Z,53.66
2023-03-15T11:13:11.911Z,53.69
2023-03-15T11:16:12.913Z,54.16
2023-03-15T11:19:16.772Z,54.00
2023-03-15T11:22:17.697Z,53.95
2023-03-15T11:25:20.444Z,54.18
2023-03-15T11:28:25.956Z,54.70
2023-03-15T11:31:27.922Z,55.06
2023-03-15T11:34:42.942Z,55.35
2023-03-15T11:37:50.908Z,55.59
2023-03-15T11:40:55.976Z,55.59
2023-03-15T11:44:11.825Z,55.42
2023-03-15T11:47:30.775Z,55.27
2023-03-15T11:50:31.630Z,55.01
2023-03-15T11:53:37.573Z,54.96
2023-03-15T11:56:44.131Z,55.13
2023-03-15T11:59:45.369Z,55.49
2023-03-15T12:02:49.053Z,55.58
2023-03-15T12:05:59.312Z,55.50
2023-03-15T12:09:01.155Z,55.61
2023-03-15T12:12:25.466Z,55.65
2023-03-15T12:15:26.280Z,55.89
2023-03-15T12:18:31.464Z,56.03
2023-03-15T12:21:39.112Z,56.13
2023-03-15T12:24:40.143Z,55.93
2023-03-15T12:27:47.809Z,55.95
2023-03-15T12:30:54.475Z,56.11
2023-03-15T12:33:57.838Z,55.98
2023-03-15T12:37:03.463Z,55.88
2023-03-15T12:40:18.119Z,55.84
2023-03-15T12:43:40.946Z,55.56
2023-03-15T12:46:41.801Z,55.53
2023-03-15T12:49:44.385Z,55.53
2023-03-15T12:52:46.765Z,55.25
2023-03-15T12:55:50.166Z,55.08
2023-03-15T12:58:56.613Z,54.97
2023-03-15T13:01:59.409Z,54.85
2023-03-15T13:05:13.922Z,54.63
2023-03-15T13:08:20.778Z,54.31
2023-03-15T13:11:45.278Z,54.02
2023-03-15T13:15:14.059Z,53.64
2023-03-15T13:18:17.271Z,53.39
2023-03-15T13:21:28.165Z,53.13
2023-03-15T13:24:35.142Z,53.14
2023-03-15T13:27:51.108Z,52.97
2023-03-15T13:30:54.162Z,52.87
2023-03-15T13:33:57.993Z,52.98
2023-03-15T13:37:01.527Z,52.77
2023-03-15T13:40:04.797Z,52.35
2023-03-15T13:43:09.113Z,52.20
2023-03-15T13:46:10.316Z,51.94
2023-03-15T13:49:11.721Z,51.67
2023-03-15T13:52:14.137Z,51.69
2023-03-15T13:55:20.009Z,51.58
2023-03-15T13:58:22.769Z,51.30
2023-03-15T14:01:23.952Z,51.31
2023-03-15T14:04:25.394Z,50.90
2023-03-15T14:07:39.475Z,50.27
2023-03-15T14:10:40.913Z,50.59
2023-03-15T14:13:53.846Z,50.02
2023-03-15T14:17:05.214Z,49.81
2023-03-15T14:20:08.356Z,49.47
2023-03-15T14:23:11.763Z,49.28
2023-03-15T14:26:27.452Z,49.16
2023-03-15T14:29:31.039Z,48.57
2023-03-15T14:32:32.826Z,48.40
2023-03-15T14:35:36.827Z,48.04
2023-03-15T14:38:38.597Z,47.98
2023-03-15T14:41:40.477Z,47.84
2023-03-15T14:44:41.308Z,47.33
2023-03-15T14:47:56.326Z,47.09
2023-03-15T14:50:58.235Z,46.86
2023-03-15T14:54:00.386Z,46.54
2023-03-15T14:57:01.263Z,46.24
2023-03-15T15:00:03.378Z,46.12
2023-03-15T15:03:13.057Z,45.74
2023-03-15T15:06:13.969Z,45.39
2023-03-15T15:09:15.173Z,45.04
2023-03-15T15:12:17.698Z,44.88
2023-03-15T15:15:22.397Z,44.87
2023-03-15T15:18:24.932Z,44.82
2023-03-15T15:21:31.243Z,44.64
2023-03-15T15:24:33.983Z,44.44
2023-03-15T15:27:34.822Z,44.10
2023-03-15T15:30:35.702Z,43.81
2023-03-15T15:33:36.655Z,43.37
2023-03-15T15:36:46.715Z,43.35
2023-03-15T15:39:47.590Z,43.07
2023-03-15T15:42:48.452Z,42.78
2023-03-15T15:45:49.301Z,42.66
2023-03-15T15:48:51.380Z,42.55
2023-03-15T15:51:52.272Z,42.30
2023-03-15T15:54:53.145Z,42.27
2023-03-15T15:57:54.188Z,42.27
2023-03-15T16:00:55.089Z,42.02
2023-03-15T16:03:56.121Z,42.05
2023-03-15T16:06:59.390Z,41.94
2023-03-15T16:10:00.492Z,41.99
2023-03-15T16:13:03.182Z,41.97
2023-03-15T16:16:04.266Z,42.07
2023-03-15T16:19:05.200Z,42.21
2023-03-15T16:22:06.286Z,42.04
2023-03-15T16:25:23.161Z,42.16
2023-03-15T16:28:24.130Z,42.05
2023-03-15T16:31:25.276Z,42.13
2023-03-15T16:34:26.246Z,42.22
2023-03-15T16:37:30.241Z,42.48
2023-03-15T16:40:34.839Z,42.57
2023-03-15T16:43:35.793Z,42.47
2023-03-15T16:46:36.886Z,42.69
2023-03-15T16:49:37.831Z,42.89
2023-03-15T16:52:39.417Z,43.27
2023-03-15T16:55:40.317Z,43.46
2023-03-15T16:58:42.008Z,43.57
2023-03-15T17:01:44.668Z,43.76
2023-03-15T17:04:45.815Z,44.07
2023-03-15T17:07:48.267Z,44.14
2023-03-15T17:10:49.223Z,44.56
2023-03-15T17:13:50.190Z,44.77
2023-03-15T17:16:51.258Z,45.01
2023-03-15T17:19:52.145Z,45.20
2023-03-15T17:22:55.914Z,45.52
2023-03-15T17:25:56.880Z,45.66
2023-03-15T17:28:57.690Z,45.91
2023-03-15T17:31:58.545Z,46.10
2023-03-15T17:34:59.405Z,46.31
2023-03-15T17:38:02.337Z,46.55
2023-03-15T17:41:03.327Z,46.83
2023-03-15T17:44:04.386Z,47.24
2023-03-15T17:47:06.702Z,47.61
2023-03-15T17:50:10.634Z,48.05
2023-03-15T17:53:19.120Z,48.28
2023-03-15T17:56:22.157Z,48.63
2023-03-15T17:59:23.015Z,48.88
2023-03-15T18:02:24.274Z,49.22
2023-03-15T18:05:26.801Z,49.52
2023-03-15T18:08:27.758Z,49.85
2023-03-15T18:11:31.190Z,50.21
2023-03-15T18:14:36.424Z,50.38
2023-03-15T18:17:37.440Z,50.77
2023-03-15T18:20:38.281Z,50.96
2023-03-15T18:23:39.314Z,51.27
2023-03-15T18:26:40.286Z,51.56
2023-03-15T18:29:41.171Z,51.66
2023-03-15T18:32:42.198Z,52.03
2023-03-15T18:35:43.085Z,52.17
2023-03-15T18:38:44.263Z,52.44
2023-03-15T18:41:45.223Z,52.62
2023-03-15T18:44:46.249Z,52.96
2023-03-15T18:47:48.223Z,53.08
2023-03-15T18:50:51.213Z,53.48
2023-03-15T18:53:52.324Z,53.67
2023-03-15T18:56:53.181Z,53.99
2023-03-15T18:59:54.059Z,54.13
2023-03-15T19:02:57.826Z,54.45
2023-03-15T19:06:04.286Z,54.58
2023-03-15T19:09:05.290Z,54.60
2023-03-15T19:12:06.651Z,54.64
2023-03-15T19:15:11.303Z,54.95
2023-03-15T19:18:12.231Z,54.92
2023-03-15T19:21:13.294Z,55.00
2023-03-15T19:24:14.167Z,55.04
2023-03-15T19:27:15.063Z,55.18
2023-03-15T19:30:20.138Z,55.35
2023-03-15T19:33:21.064Z,55.60
2023-03-15T19:36:22.204Z,55.82
2023-03-15T19:39:23.078Z,56.10
2023-03-15T19:42:24.249Z,56.34
2023-03-15T19:45:25.554Z,56.58
2023-03-15T19:48:27.903Z,56.79
2023-03-15T19:51:30.056Z,56.99
2023-03-15T19:54:33.424Z,57.10
2023-03-15T19:57:34.320Z,57.50
2023-03-15T20:00:35.217Z,57.52
2023-03-15T20:03:36.381Z,57.51
2023-03-15T20:06:37.351Z,57.48
2023-03-15T20:09:39.320Z,57.47
2023-03-15T20:12:44.678Z,57.66
2023-03-15T20:15:46.330Z,57.92
2023-03-15T20:18:50.330Z,58.07
2023-03-15T20:21:51.307Z,57.87
2023-03-15T20:24:52.404Z,57.59
2023-03-15T20:27:53.869Z,57.34
2023-03-15T20:30:54.931Z,57.15
2023-03-15T20:33:55.967Z,57.04
2023-03-15T20:36:57.710Z,56.78
2023-03-15T20:39:58.655Z,56.64
2023-03-15T20:43:00.594Z,56.60
2023-03-15T20:46:03.644Z,56.78
2023-03-15T20:49:04.544Z,56.89
2023-03-15T20:52:07.963Z,56.94
2023-03-15T20:55:11.031Z,56.80
2023-03-15T20:58:12.248Z,56.84
2023-03-15T21:01:16.276Z,56.79
2023-03-15T21:04:21.291Z,56.63
2023-03-15T21:07:22.288Z,56.60
2023-03-15T21:10:23.523Z,56.43
2023-03-15T21:13:24.667Z,56.22
2023-03-15T21:16:26.358Z,56.13
2023-03-15T21:19:28.292Z,56.07
2023-03-15T21:22:29.277Z,56.32
2023-03-15T21:25:31.662Z,56.52
2023-03-15T21:28:33.044Z,56.85
2023-03-15T21:31:35.888Z,56.94
2023-03-15T21:34:37.334Z,57.04
2023-03-15T21:37:38.442Z,57.06
2023-03-15T21:40:42.486Z,57.04
2023-03-15T21:43:43.305Z,56.99
2023-03-15T21:46:44.383Z,56.80
2023-03-15T21:49:45.328Z,56.84
2023-03-15T21:52:47.048Z,57.14
2023-03-15T21:55:48.530Z,57.27
2023-03-15T21:58:49.401Z,57.41
2023-03-15T22:01:50.452Z,57.27
2023-03-15T22:04:51.434Z,57.48
2023-03-15T22:07:52.360Z,57.64
2023-03-15T22:10:55.032Z,57.64
2023-03-15T22:13:56.210Z,57.72
2023-03-15T22:16:57.374Z,57.82
2023-03-15T22:19:58.409Z,57.90
2023-03-15T22:22:59.338Z,58.00
2023-03-15T22:26:00.521Z,58.18
2023-03-15T22:29:01.616Z,58.43
2023-03-15T22:32:03.250Z,58.74
2023-03-15T22:35:05.097Z,58.89
2023-03-15T22:38:09.293Z,58.91
2023-03-15T22:41:10.229Z,59.11
2023-03-15T22:44:11.121Z,59.25
2023-03-15T22:47:12.050Z,59.47
2023-03-15T22:50:13.687Z,59.56
2023-03-15T22:53:14.621Z,59.66
2023-03-15T22:56:22.974Z,59.70
2023-03-15T22:59:28.209Z,59.95
2023-03-15T23:02:29.108Z,59.94
2023-03-15T23:05:30.063Z,59.75
2023-03-15T23:08:30.863Z,59.71
2023-03-15T23:11:31.710Z,59.67
2023-03-15T23:14:33.042Z,59.54
2023-03-15T23:17:34.104Z,59.34
2023-03-15T23:20:35.340Z,59.22
2023-03-15T23:23:37.971Z,59.04
2023-03-15T23:26:38.852Z,58.93
2023-03-15T23:29:53.266Z,58.95
2023-03-15T23:32:58.137Z,59.11
2023-03-15T23:36:05.006Z,59.26
2023-03-15T23:39:05.890Z,59.49
2023-03-15T23:42:06.812Z,59.60
2023-03-15T23:45:08.895Z,59.98
2023-03-15T23:48:09.853Z,60.27
2023-03-15T23:51:11.957Z,60.71
2023-03-15T23:54:12.862Z,61.01
2023-03-15T23:57:14.720Z,61.11
